Time;durP1;ratioP1;P1;durP2;ratioP2;P2;SDS_P1;SDS_P2;PMS_P1;PMS_P2;Temp;Humidity;BMP_temperature;BMP_pressure;BME280_temperature;BME280_humidity;BME280_pressure;Samples;Min_cycle;Max_cycle;Signal;HPM_P1;HPM_P2
2023/01/13 00:00:57;;;;;;;;;3.50;1.00;;;;;;;;5076053;28;45332;-67
2023/01/13 00:03:22;;;;;;;;;3.25;1.00;;;;;;;;5076903;27;45328;-67
2023/01/13 00:05:47;;;;;;;;;2.75;1.00;;;;;;;;5080187;27;45619;-66
2023/01/13 00:08:12;;;;;;;;;4.00;1.00;;;;;;;;5077337;27;45709;-67
2023/01/13 00:10:37;;;;;;;;;3.00;0.75;;;;;;;;5078432;27;45254;-66
2023/01/13 00:13:04;;;;;;;;;2.50;1.00;;;;;;;;5076324;28;45449;-67
2023/01/13 00:15:29;;;;;;;;;3.00;1.00;;;;;;;;5075713;28;45548;-67
2023/01/13 00:17:54;;;;;;;;;3.25;1.00;;;;;;;;5075741;27;45421;-66
2023/01/13 00:20:19;;;;;;;;;2.00;1.00;;;;;;;;5076610;27;45520;-67
2023/01/13 00:22:45;;;;;;;;;2.00;1.00;;;;;;;;5078688;27;45368;-66
2023/01/13 00:25:10;;;;;;;;;4.50;2.00;;;;;;;;5075236;27;46502;-66
2023/01/13 00:27:35;;;;;;;;;0.75;0.75;;;;;;;;5075533;27;45478;-67
2023/01/13 00:30:01;;;;;;;;;3.00;3.00;;;;;;;;5079949;27;45591;-67
2023/01/13 00:32:26;;;;;;;;;3.25;1.00;;;;;;;;5075889;28;45418;-67
2023/01/13 00:34:52;;;;;;;;;1.00;1.00;;;;;;;;5074746;27;45860;-67
2023/01/13 00:37:17;;;;;;;;;1.00;1.00;;;;;;;;5081610;27;45495;-67
2023/01/13 00:39:42;;;;;;;;;3.00;1.75;;;;;;;;5078404;27;45478;-67
2023/01/13 00:44:52;;;;;;;;;1.25;0.00;;;;;;;;5075428;28;45798;-67
2023/01/13 00:47:17;;;;;;;;;3.00;1.25;;;;;;;;5077681;27;45408;-67
2023/01/13 00:49:43;;;;;;;;;1.50;1.00;;;;;;;;5075683;28;45431;-67
2023/01/13 00:52:08;;;;;;;;;1.25;1.00;;;;;;;;5075812;27;45604;-67
2023/01/13 00:54:34;;;;;;;;;5.00;1.75;;;;;;;;5082330;27;46314;-66
2023/01/13 00:56:59;;;;;;;;;1.00;1.00;;;;;;;;5076782;28;45305;-67
2023/01/13 00:59:24;;;;;;;;;2.75;1.00;;;;;;;;5077114;28;45334;-67
2023/01/13 01:01:49;;;;;;;;;4.25;1.00;;;;;;;;5077183;27;45341;-67
2023/01/13 01:04:14;;;;;;;;;2.25;2.00;;;;;;;;5058945;28;45483;-67
2023/01/13 01:06:40;;;;;;;;;2.75;0.00;;;;;;;;5056406;28;45425;-67
2023/01/13 01:09:05;;;;;;;;;4.75;1.25;;;;;;;;5056513;28;45424;-67
2023/01/13 01:11:31;;;;;;;;;0.00;0.00;;;;;;;;5069817;27;45241;-67
2023/01/13 01:13:57;;;;;;;;;2.00;1.25;;;;;;;;5076751;28;46486;-66
2023/01/13 01:16:24;;;;;;;;;1.75;0.00;;;;;;;;5076548;28;45395;-67
2023/01/13 01:18:50;;;;;;;;;0.75;0.50;;;;;;;;5077306;28;45345;-66
2023/01/13 01:21:16;;;;;;;;;3.50;0.00;;;;;;;;5080435;27;45427;-66
2023/01/13 01:23:41;;;;;;;;;1.75;1.50;;;;;;;;5080216;28;46518;-66
2023/01/13 01:26:09;;;;;;;;;1.75;1.00;;;;;;;;5078399;28;45490;-66
2023/01/13 01:28:34;;;;;;;;;2.50;0.50;;;;;;;;5079576;27;45373;-67
2023/01/13 01:31:04;;;;;;;;;2.00;0.50;;;;;;;;5072042;28;45837;-66
2023/01/13 01:33:29;;;;;;;;;2.00;1.00;;;;;;;;5059704;28;45432;-67
2023/01/13 01:35:54;;;;;;;;;1.50;0.25;;;;;;;;5059670;28;45951;-66
2023/01/13 01:38:21;;;;;;;;;2.50;0.00;;;;;;;;5059725;28;45376;-67
2023/01/13 01:40:46;;;;;;;;;3.00;1.00;;;;;;;;5048678;28;45495;-67
2023/01/13 01:45:59;;;;;;;;;0.50;0.25;;;;;;;;5074345;28;46036;-67
2023/01/13 01:48:25;;;;;;;;;3.50;0.00;;;;;;;;5079742;27;45339;-67
2023/01/13 01:50:51;;;;;;;;;1.75;0.00;;;;;;;;5079870;28;45449;-67
2023/01/13 01:53:18;;;;;;;;;1.50;0.50;;;;;;;;5079537;27;46741;-67
2023/01/13 01:55:43;;;;;;;;;3.00;0.25;;;;;;;;5079486;28;45454;-67
2023/01/13 01:58:19;;;;;;;;;4.00;2.00;;;;;;;;5079650;27;45545;-67
2023/01/13 02:00:45;;;;;;;;;2.75;2.00;;;;;;;;5065797;28;45446;-67
2023/01/13 02:03:10;;;;;;;;;4.25;1.00;;;;;;;;5058919;28;45485;-67
2023/01/13 02:05:35;;;;;;;;;4.50;2.00;;;;;;;;5058525;28;45713;-67
2023/01/13 02:08:01;;;;;;;;;2.00;0.25;;;;;;;;5059318;28;45347;-67
2023/01/13 02:10:27;;;;;;;;;3.25;1.50;;;;;;;;5059204;28;45151;-67
2023/01/13 02:12:54;;;;;;;;;2.00;0.50;;;;;;;;5059038;28;46349;-67
2023/01/13 02:15:28;;;;;;;;;1.00;1.00;;;;;;;;5066285;28;45459;-67
2023/01/13 02:18:04;;;;;;;;;1.25;1.25;;;;;;;;5078502;27;45542;-67
2023/01/13 02:20:44;;;;;;;;;5.25;2.00;;;;;;;;5079510;28;45322;-67
2023/01/13 02:26:11;;;;;;;;;3.00;1.00;;;;;;;;5058768;28;45328;-67
2023/01/13 02:31:42;;;;;;;;;1.00;0.25;;;;;;;;5071293;28;45357;-66
2023/01/13 02:34:17;;;;;;;;;3.75;0.50;;;;;;;;5079010;28;45454;-67
2023/01/13 02:36:50;;;;;;;;;3.00;1.75;;;;;;;;5059699;28;45412;-67
2023/01/13 02:39:15;;;;;;;;;3.50;0.75;;;;;;;;5078315;27;45355;-66
2023/01/13 02:44:37;;;;;;;;;2.00;0.00;;;;;;;;5078870;27;45761;-67
2023/01/13 02:47:09;;;;;;;;;1.00;0.00;;;;;;;;5077353;27;45413;-66
2023/01/13 02:49:39;;;;;;;;;2.00;0.00;;;;;;;;5078912;27;45344;-66
2023/01/13 02:52:10;;;;;;;;;2.50;0.00;;;;;;;;5079031;28;45539;-66
2023/01/13 02:54:36;;;;;;;;;1.00;0.00;;;;;;;;5078678;27;46961;-66
2023/01/13 02:57:02;;;;;;;;;1.00;0.00;;;;;;;;5078396;28;45591;-67
2023/01/13 02:59:29;;;;;;;;;0.00;0.00;;;;;;;;5078958;28;45173;-66
2023/01/13 03:01:55;;;;;;;;;3.50;1.00;;;;;;;;5078023;28;45265;-66
2023/01/13 03:04:39;;;;;;;;;1.00;0.00;;;;;;;;5060117;28;46637;-66
2023/01/13 03:07:11;;;;;;;;;2.75;0.00;;;;;;;;5058265;27;45250;-67
2023/01/13 03:09:41;;;;;;;;;1.75;0.00;;;;;;;;5078613;28;45375;-67
2023/01/13 03:12:17;;;;;;;;;3.00;0.00;;;;;;;;5078572;28;45237;-66
2023/01/13 03:14:54;;;;;;;;;0.50;0.00;;;;;;;;5078349;28;45386;-66
2023/01/13 03:17:31;;;;;;;;;1.50;0.00;;;;;;;;5059082;28;45368;-67
2023/01/13 03:19:59;;;;;;;;;1.75;0.00;;;;;;;;5057827;27;45399;-66
2023/01/13 03:22:34;;;;;;;;;5.50;1.00;;;;;;;;5077746;28;45398;-66
2023/01/13 03:25:04;;;;;;;;;1.00;1.00;;;;;;;;5077972;28;45640;-66
2023/01/13 03:27:39;;;;;;;;;0.25;0.25;;;;;;;;5077994;28;45505;-66
2023/01/13 03:30:25;;;;;;;;;2.00;0.00;;;;;;;;5078154;28;45434;-66
2023/01/13 03:32:57;;;;;;;;;1.25;0.00;;;;;;;;5063793;28;45275;-66
2023/01/13 03:35:28;;;;;;;;;0.75;0.00;;;;;;;;5057278;28;46326;-67
2023/01/13 03:37:59;;;;;;;;;1.75;0.00;;;;;;;;5067892;28;45272;-67
2023/01/13 03:40:26;;;;;;;;;0.00;0.00;;;;;;;;5078188;28;45639;-66
2023/01/13 03:45:46;;;;;;;;;0.00;0.00;;;;;;;;5077747;28;45457;-66
2023/01/13 03:48:14;;;;;;;;;5.25;0.50;;;;;;;;5077757;28;45431;-66
2023/01/13 03:50:47;;;;;;;;;1.00;1.00;;;;;;;;5077842;28;45388;-66
2023/01/13 03:53:17;;;;;;;;;0.00;0.00;;;;;;;;5078096;28;45411;-66
2023/01/13 03:55:54;;;;;;;;;2.00;0.00;;;;;;;;5064366;27;46519;-67
2023/01/13 03:58:25;;;;;;;;;1.00;0.00;;;;;;;;5062010;28;45360;-66
2023/01/13 04:00:58;;;;;;;;;1.00;1.00;;;;;;;;5077885;28;45514;-66
2023/01/13 04:03:47;;;;;;;;;2.00;0.00;;;;;;;;5077853;28;45377;-67
2023/01/13 04:06:24;;;;;;;;;3.25;0.00;;;;;;;;5068795;28;45515;-66
2023/01/13 04:08:56;;;;;;;;;3.00;0.00;;;;;;;;5077689;28;45388;-66
2023/01/13 04:11:28;;;;;;;;;1.00;1.00;;;;;;;;5057520;28;45345;-66
2023/01/13 04:13:54;;;;;;;;;1.00;1.00;;;;;;;;5057190;28;45359;-66
2023/01/13 04:16:20;;;;;;;;;2.00;0.50;;;;;;;;5057143;28;45445;-66
2023/01/13 04:18:48;;;;;;;;;0.75;0.75;;;;;;;;5057164;28;45450;-67
2023/01/13 04:21:13;;;;;;;;;1.00;0.00;;;;;;;;5057020;28;45438;-67
2023/01/13 04:23:39;;;;;;;;;2.50;0.00;;;;;;;;5057480;28;45399;-66
2023/01/13 04:26:04;;;;;;;;;6.00;1.50;;;;;;;;5056835;28;45524;-66
2023/01/13 04:28:29;;;;;;;;;1.75;0.75;;;;;;;;5056599;28;45566;-66
2023/01/13 04:30:54;;;;;;;;;0.00;0.00;;;;;;;;5065640;28;45558;-67
2023/01/13 04:33:19;;;;;;;;;4.00;1.25;;;;;;;;5077488;28;45266;-66
2023/01/13 04:35:45;;;;;;;;;1.75;0.25;;;;;;;;5077132;28;45293;-66
2023/01/13 04:38:11;;;;;;;;;3.25;2.00;;;;;;;;5077149;27;45371;-66
2023/01/13 04:40:37;;;;;;;;;1.25;0.00;;;;;;;;5077372;28;45333;-67
2023/01/13 04:43:02;;;;;;;;;1.25;0.00;;;;;;;;5077227;28;45403;-67
2023/01/13 04:45:27;;;;;;;;;1.75;1.00;;;;;;;;5065238;27;45626;-66
2023/01/13 04:47:53;;;;;;;;;2.00;1.00;;;;;;;;5057007;28;45209;-66
2023/01/13 04:50:18;;;;;;;;;4.25;2.25;;;;;;;;5063725;28;45155;-66
2023/01/13 04:52:44;;;;;;;;;4.00;1.00;;;;;;;;5077355;28;45222;-66
2023/01/13 04:55:10;;;;;;;;;4.50;1.00;;;;;;;;5079257;28;46618;-66
2023/01/13 04:57:36;;;;;;;;;2.50;1.00;;;;;;;;5080220;28;45396;-66
2023/01/13 05:00:02;;;;;;;;;4.75;3.00;;;;;;;;5079739;27;45227;-66
2023/01/13 05:02:27;;;;;;;;;5.50;2.75;;;;;;;;5063222;27;45427;-67
2023/01/13 05:04:53;;;;;;;;;3.00;2.00;;;;;;;;5060065;28;46777;-67
2023/01/13 05:07:18;;;;;;;;;6.00;2.75;;;;;;;;5063616;28;45455;-66
2023/01/13 05:09:43;;;;;;;;;3.00;1.50;;;;;;;;5079949;28;45356;-66
2023/01/13 05:17:37;;;;;;;;;2.50;1.00;;;;;;;;5065155;28;45244;-67
2023/01/13 05:20:03;;;;;;;;;6.75;2.00;;;;;;;;5071235;28;45331;-67
2023/01/13 05:25:21;;;;;;;;;5.75;1.00;;;;;;;;5079162;28;45265;-66
2023/01/13 05:27:46;;;;;;;;;6.50;3.00;;;;;;;;5080033;27;45337;-67
2023/01/13 05:30:12;;;;;;;;;5.50;2.75;;;;;;;;5079823;28;45297;-67
2023/01/13 05:32:37;;;;;;;;;4.25;1.00;;;;;;;;5079047;28;45478;-67
2023/01/13 05:35:02;;;;;;;;;4.00;1.00;;;;;;;;5061399;28;46181;-66
2023/01/13 05:37:28;;;;;;;;;5.25;0.75;;;;;;;;5059639;28;45353;-67
2023/01/13 05:45:21;;;;;;;;;5.75;3.25;;;;;;;;5058699;28;45747;-67
2023/01/13 05:47:46;;;;;;;;;7.50;2.25;;;;;;;;5059581;28;45403;-67
2023/01/13 05:50:11;;;;;;;;;2.00;1.00;;;;;;;;5067175;28;45521;-67
2023/01/13 05:52:37;;;;;;;;;2.25;1.00;;;;;;;;5078750;27;45779;-67
2023/01/13 05:55:02;;;;;;;;;4.75;1.00;;;;;;;;5079054;28;46461;-67
2023/01/13 05:57:27;;;;;;;;;6.00;1.75;;;;;;;;5079617;28;45347;-66
2023/01/13 05:59:52;;;;;;;;;4.00;2.25;;;;;;;;5078621;27;45693;-66
2023/01/13 06:02:17;;;;;;;;;4.50;1.00;;;;;;;;5079865;27;45470;-66
2023/01/13 06:04:43;;;;;;;;;2.25;1.25;;;;;;;;5078804;28;46324;-66
2023/01/13 06:07:08;;;;;;;;;5.00;1.50;;;;;;;;5079528;28;45400;-67
2023/01/13 06:09:33;;;;;;;;;2.50;1.75;;;;;;;;5079129;28;45424;-66
2023/01/13 06:11:58;;;;;;;;;2.75;1.00;;;;;;;;5079857;27;45521;-67
2023/01/13 06:14:23;;;;;;;;;6.75;2.00;;;;;;;;5079068;28;46303;-66
2023/01/13 06:16:49;;;;;;;;;6.25;2.00;;;;;;;;5066304;27;45402;-66
2023/01/13 06:19:14;;;;;;;;;3.75;1.75;;;;;;;;5059037;28;45369;-66
2023/01/13 06:21:39;;;;;;;;;6.25;1.00;;;;;;;;5059184;28;45356;-66
2023/01/13 06:24:06;;;;;;;;;3.50;2.00;;;;;;;;5072819;28;46444;-66
2023/01/13 06:26:35;;;;;;;;;4.00;2.00;;;;;;;;5078780;27;45511;-67
2023/01/13 06:29:00;;;;;;;;;2.50;1.00;;;;;;;;5078849;28;45375;-67
2023/01/13 06:31:27;;;;;;;;;1.00;0.00;;;;;;;;5067091;27;45307;-67
2023/01/13 06:33:54;;;;;;;;;2.00;0.75;;;;;;;;5058801;28;45424;-67
2023/01/13 06:36:24;;;;;;;;;2.75;1.00;;;;;;;;5058755;28;45355;-67
2023/01/13 06:38:51;;;;;;;;;21.00;19.00;;;;;;;;5058490;28;45376;-67
2023/01/13 06:43:13;;;;;;;;;6.25;3.50;;;;;;;;5058873;28;45557;-67
2023/01/13 06:44:02;;;;;;;;;1.00;1.00;;;;;;;;5075349;27;46061;-68
2023/01/13 06:46:27;;;;;;;;;11.75;4.25;;;;;;;;5078855;28;45159;-67
2023/01/13 06:48:53;;;;;;;;;5.75;2.75;;;;;;;;5068485;27;45523;-67
2023/01/13 06:51:18;;;;;;;;;13.50;11.75;;;;;;;;5058819;28;45490;-67
2023/01/13 06:53:43;;;;;;;;;4.25;2.25;;;;;;;;5058162;28;46434;-66
2023/01/13 06:56:08;;;;;;;;;5.25;2.50;;;;;;;;5058367;28;45423;-67
2023/01/13 06:58:33;;;;;;;;;3.75;2.75;;;;;;;;5058869;28;45342;-67
2023/01/13 07:00:59;;;;;;;;;4.75;2.50;;;;;;;;5058392;28;45434;-66
2023/01/13 07:03:24;;;;;;;;;3.00;1.00;;;;;;;;5059269;28;45381;-66
2023/01/13 07:05:51;;;;;;;;;9.00;3.50;;;;;;;;5069061;27;45490;-66
2023/01/13 07:08:16;;;;;;;;;12.67;11.33;;;;;;;;5078513;28;45301;-67
2023/01/13 07:10:41;;;;;;;;;8.25;6.00;;;;;;;;5078794;28;45442;-67
2023/01/13 07:15:57;;;;;;;;;5.75;3.00;;;;;;;;5077949;28;45443;-66
2023/01/13 07:18:23;;;;;;;;;5.50;2.00;;;;;;;;5077824;28;45262;-66
2023/01/13 07:20:52;;;;;;;;;17.33;13.00;;;;;;;;5076346;27;45611;-66
2023/01/13 07:23:17;;;;;;;;;7.50;3.75;;;;;;;;5069664;27;45543;-66
2023/01/13 07:25:42;;;;;;;;;6.25;4.00;;;;;;;;5074936;28;45578;-66
2023/01/13 07:28:08;;;;;;;;;12.00;7.00;;;;;;;;5058066;28;45428;-66
2023/01/13 07:30:33;;;;;;;;;12.50;4.50;;;;;;;;5057912;28;45561;-66
2023/01/13 07:32:58;;;;;;;;;3.00;1.75;;;;;;;;5057707;28;45363;-66
2023/01/13 07:35:23;;;;;;;;;7.50;2.50;;;;;;;;5066544;28;45467;-66
2023/01/13 07:37:49;;;;;;;;;3.75;1.00;;;;;;;;5078324;28;45398;-66
2023/01/13 07:40:14;;;;;;;;;7.50;4.50;;;;;;;;5077152;27;45321;-66
2023/01/13 07:45:23;;;;;;;;;5.75;2.50;;;;;;;;5064302;28;45499;-67
2023/01/13 07:47:49;;;;;;;;;5.75;4.75;;;;;;;;5059149;28;45434;-66
2023/01/13 07:50:15;;;;;;;;;4.75;2.50;;;;;;;;5076885;28;45413;-66
2023/01/13 07:52:40;;;;;;;;;3.25;2.75;;;;;;;;5076751;28;46185;-66
2023/01/13 07:55:05;;;;;;;;;7.00;3.00;;;;;;;;5077450;28;45403;-66
2023/01/13 07:57:30;;;;;;;;;6.25;2.50;;;;;;;;5078008;28;45356;-66
2023/01/13 07:59:56;;;;;;;;;12.00;3.00;;;;;;;;5066023;27;45489;-67
2023/01/13 08:02:21;;;;;;;;;3.25;1.25;;;;;;;;5080815;27;46418;-66
2023/01/13 08:04:46;;;;;;;;;12.25;2.75;;;;;;;;5077726;27;45389;-66
2023/01/13 08:07:11;;;;;;;;;6.00;2.00;;;;;;;;5077529;28;45225;-66
2023/01/13 08:09:36;;;;;;;;;11.00;2.00;;;;;;;;5077914;27;45757;-66
2023/01/13 08:15:03;;;;;;;;;4.75;3.25;;;;;;;;5015049;28;45397;-67
2023/01/13 08:17:28;;;;;;;;;4.25;3.00;;;;;;;;5013822;28;45270;-66
2023/01/13 08:19:54;;;;;;;;;5.25;2.25;;;;;;;;5014052;28;45595;-66
2023/01/13 08:22:19;;;;;;;;;7.25;3.25;;;;;;;;5013310;28;46747;-66
2023/01/13 08:24:44;;;;;;;;;6.25;2.50;;;;;;;;5014989;28;45475;-66
2023/01/13 08:27:09;;;;;;;;;12.75;4.00;;;;;;;;5013672;28;45387;-66
2023/01/13 08:29:34;;;;;;;;;7.00;4.00;;;;;;;;5014593;28;45604;-66
2023/01/13 08:32:00;;;;;;;;;5.75;2.50;;;;;;;;5013872;28;46806;-66
2023/01/13 08:34:25;;;;;;;;;3.00;2.25;;;;;;;;5013785;28;45461;-66
2023/01/13 08:36:50;;;;;;;;;4.25;2.00;;;;;;;;5013725;28;45543;-66
2023/01/13 08:39:17;;;;;;;;;4.50;3.00;;;;;;;;5007303;28;45575;-67
2023/01/13 08:41:54;;;;;;;;;6.00;3.75;;;;;;;;4994404;28;45646;-66
2023/01/13 08:44:20;;;;;;;;;9.50;4.75;;;;;;;;4994776;28;45468;-66
2023/01/13 08:46:45;;;;;;;;;6.25;4.00;;;;;;;;4995139;28;45569;-66
2023/01/13 08:49:10;;;;;;;;;5.00;3.75;;;;;;;;5029910;28;45535;-66
2023/01/13 08:51:35;;;;;;;;;4.00;2.00;;;;;;;;5059257;28;46689;-66
2023/01/13 08:54:01;;;;;;;;;12.50;3.50;;;;;;;;5061149;27;45698;-66
2023/01/13 08:56:28;;;;;;;;;15.50;5.75;;;;;;;;5057151;28;45376;-66
2023/01/13 08:58:56;;;;;;;;;5.50;2.00;;;;;;;;5056897;28;45396;-66
2023/01/13 09:01:21;;;;;;;;;10.50;4.50;;;;;;;;5056254;28;46295;-66
2023/01/13 09:03:46;;;;;;;;;4.50;2.75;;;;;;;;5056624;28;45319;-66
2023/01/13 09:06:12;;;;;;;;;4.25;3.00;;;;;;;;5056432;28;45359;-66
2023/01/13 09:08:37;;;;;;;;;2.75;2.75;;;;;;;;5057007;28;45313;-66
2023/01/13 09:13:10;;;;;;;;;2.75;2.75;;;;;;;;5056920;27;46608;-66
2023/01/13 09:13:48;;;;;;;;;25.33;21.67;;;;;;;;5056217;28;45292;-67
2023/01/13 09:16:13;;;;;;;;;3.25;3.00;;;;;;;;5056234;28;45483;-67
2023/01/13 09:18:38;;;;;;;;;16.00;10.75;;;;;;;;5056662;28;45412;-66
2023/01/13 09:21:03;;;;;;;;;6.50;4.00;;;;;;;;5055908;28;46743;-67
2023/01/13 09:23:29;;;;;;;;;5.75;3.25;;;;;;;;5068686;28;45386;-66
2023/01/13 09:25:54;;;;;;;;;5.75;4.75;;;;;;;;5066931;27;45408;-66
2023/01/13 09:28:19;;;;;;;;;7.25;3.00;;;;;;;;5056473;28;45807;-66
2023/01/13 09:30:44;;;;;;;;;4.25;3.00;;;;;;;;5061042;28;45344;-66
2023/01/13 09:36:07;;;;;;;;;5.00;2.50;;;;;;;;5013959;28;45483;-67
2023/01/13 09:38:32;;;;;;;;;3.75;2.00;;;;;;;;5013084;28;45420;-66
2023/01/13 09:40:57;;;;;;;;;3.75;2.00;;;;;;;;5015796;28;46339;-66
2023/01/13 09:49:22;;;;;;;;;3.75;1.75;;;;;;;;4958230;28;45453;-67
2023/01/13 09:51:51;;;;;;;;;7.00;4.00;;;;;;;;4957868;28;46443;-66
2023/01/13 09:54:35;;;;;;;;;5.50;4.00;;;;;;;;4957026;28;45782;-67
2023/01/13 09:57:00;;;;;;;;;4.75;4.75;;;;;;;;4966991;28;45636;-67
2023/01/13 09:59:28;;;;;;;;;4.00;2.75;;;;;;;;4971057;28;45514;-67
2023/01/13 10:01:53;;;;;;;;;7.00;4.25;;;;;;;;4960203;28;45451;-66
2023/01/13 10:04:18;;;;;;;;;2.50;2.50;;;;;;;;4957442;28;45505;-67
2023/01/13 10:06:47;;;;;;;;;5.75;3.00;;;;;;;;4962662;28;46770;-67
2023/01/13 10:09:26;;;;;;;;;4.25;2.75;;;;;;;;4971813;28;45521;-67
2023/01/13 10:14:40;;;;;;;;;3.50;2.00;;;;;;;;4994999;28;45518;-66
2023/01/13 10:17:24;;;;;;;;;4.00;1.00;;;;;;;;4994997;28;45512;-66
2023/01/13 10:19:54;;;;;;;;;4.00;2.00;;;;;;;;4995972;28;45497;-66
2023/01/13 10:22:31;;;;;;;;;7.50;3.00;;;;;;;;4995815;28;45818;-66
2023/01/13 10:24:56;;;;;;;;;3.00;2.00;;;;;;;;5020615;28;45425;-66
2023/01/13 10:27:30;;;;;;;;;6.00;1.50;;;;;;;;5057964;28;45587;-67
2023/01/13 10:29:56;;;;;;;;;7.00;3.00;;;;;;;;5060441;27;45376;-67
2023/01/13 10:32:22;;;;;;;;;3.75;2.00;;;;;;;;5077919;28;47797;-67
2023/01/13 10:34:56;;;;;;;;;5.25;3.00;;;;;;;;5078882;27;45285;-67
2023/01/13 10:37:26;;;;;;;;;5.50;3.00;;;;;;;;5078557;28;45509;-67
2023/01/13 10:39:55;;;;;;;;;4.00;3.00;;;;;;;;5078664;28;45468;-67
2023/01/13 10:42:22;;;;;;;;;4.50;2.25;;;;;;;;5078047;27;46453;-67
2023/01/13 10:44:47;;;;;;;;;2.25;1.75;;;;;;;;5078379;28;45382;-67
2023/01/13 10:47:22;;;;;;;;;3.00;1.25;;;;;;;;5072193;27;45541;-67
2023/01/13 10:50:04;;;;;;;;;6.75;1.50;;;;;;;;5061356;27;45350;-67
2023/01/13 10:52:31;;;;;;;;;7.25;2.25;;;;;;;;5078081;28;45657;-66
2023/01/13 10:54:56;;;;;;;;;1.00;1.00;;;;;;;;5078090;28;45226;-67
2023/01/13 10:57:22;;;;;;;;;2.25;1.00;;;;;;;;5077934;28;45808;-67
2023/01/13 10:59:48;;;;;;;;;2.50;1.00;;;;;;;;5078337;28;45321;-67
2023/01/13 11:02:30;;;;;;;;;5.50;2.50;;;;;;;;5076842;27;46170;-67
2023/01/13 11:04:56;;;;;;;;;4.25;2.00;;;;;;;;5077749;27;45387;-67
2023/01/13 11:07:27;;;;;;;;;2.75;1.00;;;;;;;;5078269;27;45440;-66
2023/01/13 11:10:02;;;;;;;;;2.00;0.75;;;;;;;;5078293;28;45422;-66
2023/01/13 11:12:31;;;;;;;;;3.00;2.00;;;;;;;;5089071;27;45606;-67
2023/01/13 11:14:59;;;;;;;;;1.50;1.50;;;;;;;;5098389;27;45600;-67
2023/01/13 11:17:39;;;;;;;;;6.50;4.25;;;;;;;;5095739;27;45544;-67
2023/01/13 11:20:04;;;;;;;;;5.25;1.00;;;;;;;;5077876;28;45716;-67
2023/01/13 11:22:42;;;;;;;;;5.00;1.00;;;;;;;;5077556;28;46584;-66
2023/01/13 11:25:15;;;;;;;;;2.00;2.00;;;;;;;;5078225;27;45411;-67
2023/01/13 11:27:43;;;;;;;;;5.00;2.00;;;;;;;;5077803;27;45411;-66
2023/01/13 11:30:08;;;;;;;;;4.75;2.50;;;;;;;;5074324;28;46409;-67
2023/01/13 11:32:52;;;;;;;;;5.25;1.00;;;;;;;;5057122;28;46103;-67
2023/01/13 11:35:18;;;;;;;;;2.00;0.00;;;;;;;;5073221;27;45719;-67
2023/01/13 11:37:49;;;;;;;;;7.50;2.00;;;;;;;;5076615;28;45542;-67
2023/01/13 11:40:14;;;;;;;;;5.25;3.00;;;;;;;;5077608;28;45857;-67
2023/01/13 11:43:02;;;;;;;;;7.75;3.25;;;;;;;;5078015;27;45374;-67
2023/01/13 11:45:52;;;;;;;;;2.50;2.25;;;;;;;;5014746;28;45378;-67
2023/01/13 11:48:19;;;;;;;;;8.00;1.50;;;;;;;;4975269;28;45671;-67
2023/01/13 11:50:46;;;;;;;;;2.00;2.00;;;;;;;;4975458;28;45422;-67
2023/01/13 11:53:14;;;;;;;;;6.00;4.75;;;;;;;;4974176;28;46225;-66
2023/01/13 11:55:56;;;;;;;;;6.75;3.50;;;;;;;;4975178;28;45599;-66
2023/01/13 11:58:24;;;;;;;;;4.25;2.25;;;;;;;;4968415;28;45480;-67
2023/01/13 12:00:58;;;;;;;;;4.00;2.00;;;;;;;;4955868;28;45507;-67
2023/01/13 12:03:29;;;;;;;;;2.00;2.00;;;;;;;;4954744;28;45548;-67
2023/01/13 12:05:58;;;;;;;;;7.50;3.75;;;;;;;;4955604;28;45410;-66
2023/01/13 12:08:36;;;;;;;;;5.25;3.00;;;;;;;;4970828;28;45929;-67
2023/01/13 12:11:01;;;;;;;;;6.50;2.00;;;;;;;;4973584;28;45564;-67
2023/01/13 12:13:45;;;;;;;;;5.25;2.50;;;;;;;;4974854;28;46302;-67
2023/01/13 12:16:14;;;;;;;;;7.00;3.25;;;;;;;;4973382;28;46004;-67
2023/01/13 12:18:46;;;;;;;;;5.00;3.50;;;;;;;;4974622;28;45490;-67
2023/01/13 12:21:18;;;;;;;;;4.25;1.50;;;;;;;;4975093;28;45552;-66
2023/01/13 12:24:04;;;;;;;;;1.00;1.00;;;;;;;;5014255;28;45709;-67
2023/01/13 12:26:33;;;;;;;;;6.25;3.00;;;;;;;;5056395;28;45455;-67
2023/01/13 12:29:03;;;;;;;;;5.00;1.75;;;;;;;;5056515;28;45512;-67
2023/01/13 12:31:30;;;;;;;;;4.00;2.25;;;;;;;;5056730;27;45462;-67
2023/01/13 12:33:58;;;;;;;;;2.75;2.00;;;;;;;;5059703;27;47021;-67
2023/01/13 12:36:29;;;;;;;;;4.75;2.00;;;;;;;;5056104;28;45442;-67
2023/01/13 12:38:54;;;;;;;;;6.75;2.50;;;;;;;;5075435;28;45502;-67
2023/01/13 12:41:23;;;;;;;;;5.50;2.00;;;;;;;;5069341;27;45373;-67
2023/01/13 12:46:33;;;;;;;;;3.50;1.75;;;;;;;;5056075;28;45464;-67
2023/01/13 12:49:03;;;;;;;;;2.00;2.00;;;;;;;;5064255;27;45424;-67
2023/01/13 12:51:36;;;;;;;;;6.00;4.25;;;;;;;;5097198;27;45325;-67
2023/01/13 12:54:21;;;;;;;;;5.00;3.00;;;;;;;;5096610;27;46180;-67
2023/01/13 12:56:46;;;;;;;;;5.00;1.75;;;;;;;;5090031;27;45428;-67
2023/01/13 12:59:18;;;;;;;;;6.00;5.50;;;;;;;;5063098;27;45450;-67
2023/01/13 13:01:44;;;;;;;;;6.50;2.00;;;;;;;;5056285;28;45399;-66
2023/01/13 13:04:11;;;;;;;;;2.75;2.75;;;;;;;;5062779;28;46429;-67
2023/01/13 13:06:38;;;;;;;;;4.75;3.00;;;;;;;;5076853;27;45423;-67
2023/01/13 13:09:05;;;;;;;;;4.00;2.25;;;;;;;;5075564;27;45395;-67
2023/01/13 13:14:13;;;;;;;;;4.50;2.00;;;;;;;;5096483;27;45651;-67
2023/01/13 13:16:49;;;;;;;;;5.50;2.25;;;;;;;;5099544;27;45436;-67
2023/01/13 13:19:17;;;;;;;;;3.25;2.50;;;;;;;;5100009;27;45547;-67
2023/01/13 13:22:01;;;;;;;;;3.00;1.50;;;;;;;;5067233;27;45340;-67
2023/01/13 13:24:27;;;;;;;;;4.00;3.75;;;;;;;;5076256;27;46375;-67
2023/01/13 13:26:52;;;;;;;;;6.00;3.00;;;;;;;;5080558;27;45375;-67
2023/01/13 13:29:20;;;;;;;;;6.00;2.00;;;;;;;;5079655;28;45475;-67
2023/01/13 13:32:04;;;;;;;;;4.00;2.00;;;;;;;;5078668;27;45672;-67
2023/01/13 13:34:29;;;;;;;;;2.75;2.00;;;;;;;;5079327;28;45462;-67
2023/01/13 13:37:09;;;;;;;;;5.50;1.50;;;;;;;;5079395;28;45348;-67
2023/01/13 13:47:59;;;;;;;;;2.00;2.00;;;;;;;;5058793;28;45367;-65
2023/01/13 13:50:24;;;;;;;;;3.25;3.00;;;;;;;;5062740;27;45444;-68
2023/01/13 13:52:57;;;;;;;;;7.75;5.00;;;;;;;;5058797;27;45503;-66
2023/01/13 13:55:24;;;;;;;;;7.00;5.75;;;;;;;;5058679;28;45841;-65
2023/01/13 13:57:50;;;;;;;;;6.50;4.25;;;;;;;;5070987;27;45568;-65
2023/01/13 14:00:18;;;;;;;;;8.25;3.50;;;;;;;;5078970;27;45461;-66
2023/01/13 14:02:49;;;;;;;;;5.00;4.50;;;;;;;;5079345;27;45530;-65
2023/01/13 14:05:16;;;;;;;;;5.50;3.75;;;;;;;;5078468;28;45738;-66
2023/01/13 14:07:43;;;;;;;;;4.50;3.00;;;;;;;;5078738;28;45550;-66
2023/01/13 14:10:31;;;;;;;;;6.00;4.00;;;;;;;;5079008;28;45424;-65
2023/01/13 14:12:58;;;;;;;;;8.00;5.00;;;;;;;;5027849;28;46715;-66
2023/01/13 14:15:30;;;;;;;;;5.75;4.00;;;;;;;;5015212;28;45416;-65
2023/01/13 14:17:55;;;;;;;;;5.75;4.25;;;;;;;;5015776;28;45453;-65
2023/01/13 14:20:20;;;;;;;;;5.50;5.00;;;;;;;;5016554;28;45624;-65
2023/01/13 14:22:47;;;;;;;;;7.00;4.00;;;;;;;;5016425;28;45470;-65
2023/01/13 14:25:31;;;;;;;;;6.25;5.00;;;;;;;;5016296;28;46257;-66
2023/01/13 14:27:57;;;;;;;;;13.00;8.25;;;;;;;;5015801;28;45576;-66
2023/01/13 14:30:24;;;;;;;;;7.50;4.50;;;;;;;;5011725;28;45527;-66
2023/01/13 14:32:50;;;;;;;;;9.75;5.25;;;;;;;;5001541;28;45540;-66
2023/01/13 14:35:16;;;;;;;;;9.50;4.75;;;;;;;;5015628;28;46526;-66
2023/01/13 14:37:42;;;;;;;;;9.25;5.00;;;;;;;;5015853;28;45392;-66
2023/01/13 14:40:26;;;;;;;;;6.50;4.00;;;;;;;;5015839;28;45488;-66
2023/01/13 14:42:55;;;;;;;;;10.00;9.33;;;;;;;;5016864;28;45287;-67
2023/01/13 14:45:24;;;;;;;;;5.50;4.25;;;;;;;;5014263;28;47314;-67
2023/01/13 14:47:53;;;;;;;;;15.67;14.33;;;;;;;;5013682;28;45842;-67
2023/01/13 14:50:20;;;;;;;;;12.75;4.00;;;;;;;;5049306;28;45887;-67
2023/01/13 14:52:47;;;;;;;;;12.00;5.67;;;;;;;;5076955;28;46218;-66
2023/01/13 14:55:30;;;;;;;;;7.25;4.75;;;;;;;;5076619;28;46757;-66
2023/01/13 14:58:14;;;;;;;;;10.00;6.00;;;;;;;;5076824;27;45801;-67
2023/01/13 15:00:39;;;;;;;;;18.00;10.67;;;;;;;;5074220;28;45778;-66
2023/01/13 15:03:06;;;;;;;;;6.75;5.00;;;;;;;;5078273;27;45648;-67
2023/01/13 15:05:33;;;;;;;;;20.00;17.67;;;;;;;;5081009;27;45834;-67
2023/01/13 15:08:11;;;;;;;;;14.25;7.50;;;;;;;;5076758;27;45434;-67
2023/01/13 15:10:37;;;;;;;;;16.25;9.50;;;;;;;;5076723;28;45717;-68
2023/01/13 15:13:04;;;;;;;;;11.50;7.25;;;;;;;;5077552;27;45484;-68
2023/01/13 15:15:33;;;;;;;;;28.67;19.67;;;;;;;;5076351;28;46622;-66
2023/01/13 15:18:09;;;;;;;;;14.33;10.00;;;;;;;;5076230;28;45472;-67
2023/01/13 15:20:34;;;;;;;;;16.33;12.67;;;;;;;;5080875;27;45569;-66
2023/01/13 15:23:00;;;;;;;;;29.67;25.33;;;;;;;;5077013;27;45435;-67
2023/01/13 15:25:30;;;;;;;;;14.25;9.75;;;;;;;;5065109;28;46486;-65
2023/01/13 15:27:55;;;;;;;;;13.67;10.67;;;;;;;;5075419;28;45391;-68
2023/01/13 15:30:25;;;;;;;;;21.33;13.00;;;;;;;;5077410;28;45403;-68
2023/01/13 15:32:51;;;;;;;;;33.00;26.33;;;;;;;;5063387;28;45450;-65
2023/01/13 15:35:17;;;;;;;;;13.33;11.00;;;;;;;;5057431;28;47499;-65
2023/01/13 15:37:43;;;;;;;;;31.00;23.00;;;;;;;;5056004;28;45900;-66
2023/01/13 15:40:22;;;;;;;;;27.33;20.00;;;;;;;;5070119;28;45518;-65
2023/01/13 15:48:16;;;;;;;;;17.33;14.00;;;;;;;;5056690;28;45468;-66
2023/01/13 15:50:42;;;;;;;;;18.67;16.67;;;;;;;;5073848;28;45425;-66
2023/01/13 15:53:09;;;;;;;;;14.50;9.50;;;;;;;;5077337;27;46088;-66
2023/01/13 15:55:36;;;;;;;;;14.50;9.25;;;;;;;;5077447;27;45562;-66
2023/01/13 15:58:01;;;;;;;;;14.25;9.25;;;;;;;;5056334;27;45469;-66